Time;durP1;ratioP1;P1;durP2;ratioP2;P2;SDS_P1;SDS_P2;PMS_P1;PMS_P2;Temp;Humidity;BMP_temperature;BMP_pressure;BME280_temperature;BME280_humidity;BME280_pressure;Samples;Min_cycle;Max_cycle;Signal;HPM_P1;HPM_P2
2023/08/25 10:51:40;;;;;;;19.63;11.25;;;;;;;;;;6164838;22;1297128;-87
2023/08/25 10:54:16;;;;;;;17.73;11.77;;;;;;;;;;6208515;23;20350;-87
2023/08/25 10:56:42;;;;;;;17.77;12.40;;;;;;;;;;6210285;23;20019;-91
2023/08/25 10:59:09;;;;;;;19.00;12.65;;;;;;;;;;6207955;23;20044;-91
2023/08/25 11:01:38;;;;;;;17.38;12.02;;;;;;;;;;6210008;23;20489;-91
2023/08/25 11:04:14;;;;;;;22.27;12.85;;;;;;;;;;6210978;23;20092;-85
2023/08/25 11:06:54;;;;;;;18.05;12.00;;;;;;;;;;6209680;23;20083;-85
2023/08/25 11:09:26;;;;;;;17.98;11.75;;;;;;;;;;6211910;23;20315;-86
2023/08/25 11:11:56;;;;;;;17.90;12.48;;;;;;;;;;6211985;23;20083;-83
2023/08/25 11:14:26;;;;;;;17.08;12.13;;;;;;;;;;6212221;23;20333;-84
2023/08/25 11:16:53;;;;;;;21.25;12.43;;;;;;;;;;6209570;23;20434;-86
2023/08/25 11:19:19;;;;;;;19.17;13.50;;;;;;;;;;6211055;23;20024;-87
2023/08/25 11:21:55;;;;;;;19.85;12.02;;;;;;;;;;6210412;23;20035;-90
2023/08/25 11:24:23;;;;;;;19.45;12.15;;;;;;;;;;6210663;23;20020;-85
2023/08/25 11:26:49;;;;;;;17.48;12.07;;;;;;;;;;6209755;23;20367;-86
2023/08/25 11:29:15;;;;;;;17.33;11.35;;;;;;;;;;6206949;23;20076;-84
2023/08/25 11:31:43;;;;;;;15.80;11.50;;;;;;;;;;6206099;23;20020;-88
2023/08/25 11:34:09;;;;;;;15.15;11.10;;;;;;;;;;6206715;23;20021;-88
2023/08/25 11:36:36;;;;;;;17.08;11.60;;;;;;;;;;6209267;23;20480;-89
2023/08/25 11:39:02;;;;;;;16.08;11.35;;;;;;;;;;6209927;23;20040;-88
2023/08/25 11:41:28;;;;;;;15.95;11.45;;;;;;;;;;6209886;23;20028;-88
2023/08/25 11:43:55;;;;;;;16.92;11.55;;;;;;;;;;6210809;23;20316;-89
2023/08/25 11:46:21;;;;;;;16.83;11.20;;;;;;;;;;6208446;23;20020;-88
2023/08/25 11:48:55;;;;;;;16.95;12.20;;;;;;;;;;6211810;23;20016;-87
2023/08/25 11:51:21;;;;;;;16.75;11.15;;;;;;;;;;6209473;23;20024;-88
2023/08/25 11:53:47;;;;;;;15.18;10.95;;;;;;;;;;6208930;23;20048;-88
2023/08/25 11:56:15;;;;;;;13.88;9.52;;;;;;;;;;6183544;23;20013;-88
2023/08/25 11:58:41;;;;;;;16.10;10.18;;;;;;;;;;6211324;23;20088;-88
2023/08/25 12:01:07;;;;;;;15.55;10.52;;;;;;;;;;6207689;23;20259;-88
2023/08/25 12:03:37;;;;;;;16.50;10.00;;;;;;;;;;6207836;23;20342;-89
2023/08/25 12:06:06;;;;;;;13.27;9.40;;;;;;;;;;6208548;23;20171;-87
2023/08/25 12:08:36;;;;;;;12.73;9.32;;;;;;;;;;6211313;23;20020;-89
2023/08/25 12:11:02;;;;;;;13.45;9.57;;;;;;;;;;6210142;23;20067;-89
2023/08/25 12:13:32;;;;;;;13.35;9.77;;;;;;;;;;6211249;23;20020;-88
2023/08/25 12:15:58;;;;;;;14.82;9.80;;;;;;;;;;6209238;23;20066;-88
2023/08/25 12:18:37;;;;;;;13.95;9.75;;;;;;;;;;6209428;23;20064;-88
2023/08/25 12:21:05;;;;;;;12.02;8.93;;;;;;;;;;6183124;23;20044;-89
2023/08/25 12:23:41;;;;;;;7.80;5.68;;;;;;;;;;6184031;23;20093;-89
2023/08/25 12:26:13;;;;;;;5.05;3.72;;;;;;;;;;6206560;23;20386;-90
2023/08/25 12:28:40;;;;;;;5.38;3.80;;;;;;;;;;6205875;23;20075;-89
2023/08/25 12:31:06;;;;;;;4.22;3.13;;;;;;;;;;6206398;23;20094;-88
2023/08/25 12:33:32;;;;;;;3.10;2.60;;;;;;;;;;6206968;23;20051;-87
2023/08/25 12:35:58;;;;;;;4.65;2.75;;;;;;;;;;6204717;23;20099;-87
2023/08/25 12:38:24;;;;;;;3.00;2.00;;;;;;;;;;6206612;23;20454;-87
2023/08/25 12:40:50;;;;;;;3.35;2.78;;;;;;;;;;6206452;23;20499;-88
2023/08/25 12:43:16;;;;;;;3.65;2.67;;;;;;;;;;6208798;23;20020;-87
2023/08/25 12:45:43;;;;;;;3.28;2.50;;;;;;;;;;6208031;23;20035;-84
2023/08/25 12:48:09;;;;;;;3.00;2.38;;;;;;;;;;6207574;23;20017;-83
2023/08/25 12:50:35;;;;;;;3.85;2.95;;;;;;;;;;6208599;23;20028;-84
2023/08/25 12:53:02;;;;;;;4.18;3.08;;;;;;;;;;6208728;23;20016;-84
2023/08/25 12:55:29;;;;;;;7.50;4.75;;;;;;;;;;6206706;23;20021;-83
2023/08/25 12:57:55;;;;;;;7.47;4.50;;;;;;;;;;6207704;23;20350;-83
2023/08/25 13:00:21;;;;;;;7.15;5.68;;;;;;;;;;6209593;23;20016;-84
2023/08/25 13:02:47;;;;;;;7.10;5.47;;;;;;;;;;6209278;23;20019;-83
2023/08/25 13:05:13;;;;;;;7.47;5.65;;;;;;;;;;6206347;23;20023;-84
2023/08/25 13:07:39;;;;;;;8.63;5.95;;;;;;;;;;6208369;23;20087;-83
2023/08/25 13:10:09;;;;;;;8.23;5.70;;;;;;;;;;6206261;23;20040;-83
2023/08/25 13:12:35;;;;;;;11.48;7.20;;;;;;;;;;6206591;23;20431;-84
2023/08/25 13:15:08;;;;;;;10.05;7.07;;;;;;;;;;6206934;23;20016;-85
2023/08/25 13:17:34;;;;;;;9.70;6.90;;;;;;;;;;6208165;23;20338;-85
2023/08/25 13:20:00;;;;;;;11.13;6.15;;;;;;;;;;6206429;23;20346;-83
2023/08/25 13:22:26;;;;;;;8.65;6.13;;;;;;;;;;6204911;23;20035;-83
2023/08/25 13:24:52;;;;;;;9.15;5.65;;;;;;;;;;6209254;23;20017;-82
2023/08/25 13:27:18;;;;;;;11.00;7.03;;;;;;;;;;6207350;23;20013;-82
2023/08/25 13:29:44;;;;;;;10.05;7.38;;;;;;;;;;6208189;23;20055;-81
2023/08/25 13:32:10;;;;;;;12.18;8.40;;;;;;;;;;6208200;23;20020;-82
2023/08/25 13:34:38;;;;;;;12.77;9.43;;;;;;;;;;6206810;23;20020;-83
2023/08/25 13:37:04;;;;;;;12.55;8.88;;;;;;;;;;6207730;23;20013;-84
2023/08/25 13:39:33;;;;;;;17.80;9.93;;;;;;;;;;6206297;23;20440;-84
2023/08/25 13:41:59;;;;;;;17.65;10.95;;;;;;;;;;6209059;23;20020;-84
2023/08/25 13:44:25;;;;;;;17.02;9.77;;;;;;;;;;6209726;23;20027;-84
2023/08/25 13:46:51;;;;;;;17.08;11.18;;;;;;;;;;6209094;23;20004;-85
2023/08/25 13:49:17;;;;;;;17.00;11.50;;;;;;;;;;6210558;23;20023;-85
2023/08/25 13:51:43;;;;;;;18.20;12.95;;;;;;;;;;6209870;23;20027;-87
2023/08/25 13:54:09;;;;;;;19.85;12.35;;;;;;;;;;6185132;23;20031;-84
2023/08/25 13:56:38;;;;;;;19.30;13.20;;;;;;;;;;6210145;23;20338;-87
2023/08/25 13:59:04;;;;;;;18.80;12.13;;;;;;;;;;6209188;23;20020;-85
2023/08/25 14:01:30;;;;;;;18.85;13.00;;;;;;;;;;6210550;23;20063;-86
2023/08/25 14:03:56;;;;;;;18.67;11.98;;;;;;;;;;6210282;23;20015;-86
2023/08/25 14:06:22;;;;;;;17.92;12.27;;;;;;;;;;6207743;23;20048;-86
2023/08/25 14:08:48;;;;;;;19.52;13.02;;;;;;;;;;6207066;23;20016;-88
2023/08/25 14:11:14;;;;;;;20.15;12.25;;;;;;;;;;6207244;23;20027;-88
2023/08/25 14:13:40;;;;;;;20.50;12.80;;;;;;;;;;6210866;23;20017;-87
2023/08/25 14:16:06;;;;;;;18.50;12.38;;;;;;;;;;6206958;23;20060;-87
2023/08/25 14:18:32;;;;;;;22.25;12.30;;;;;;;;;;6209007;23;20019;-87
2023/08/25 14:20:58;;;;;;;20.02;12.48;;;;;;;;;;6210444;23;20438;-87
2023/08/25 14:23:24;;;;;;;19.15;11.70;;;;;;;;;;6212192;23;20435;-87
2023/08/25 14:25:50;;;;;;;20.42;13.75;;;;;;;;;;6207332;23;20030;-88
2023/08/25 14:28:16;;;;;;;18.50;13.02;;;;;;;;;;6210191;23;20099;-86
2023/08/25 14:30:42;;;;;;;17.65;13.00;;;;;;;;;;6210348;23;20021;-87
2023/08/25 14:33:08;;;;;;;18.92;12.30;;;;;;;;;;6211010;23;20087;-86
2023/08/25 14:35:37;;;;;;;18.52;12.32;;;;;;;;;;6209371;23;20414;-88
2023/08/25 14:38:03;;;;;;;15.75;12.15;;;;;;;;;;6210756;23;20013;-87
2023/08/25 14:40:29;;;;;;;17.73;12.18;;;;;;;;;;6210649;23;20021;-88
2023/08/25 14:42:58;;;;;;;18.17;11.40;;;;;;;;;;6208984;23;20084;-87
2023/08/25 14:45:24;;;;;;;15.55;11.52;;;;;;;;;;6211295;23;20017;-87
2023/08/25 14:47:50;;;;;;;14.65;10.95;;;;;;;;;;6208975;23;20083;-85
2023/08/25 14:50:16;;;;;;;14.57;11.20;;;;;;;;;;6212108;23;20013;-88
2023/08/25 14:52:42;;;;;;;15.50;11.55;;;;;;;;;;6243836;23;20095;-86
2023/08/25 14:55:08;;;;;;;14.40;11.13;;;;;;;;;;6213833;23;20101;-88
2023/08/25 14:57:34;;;;;;;17.30;11.88;;;;;;;;;;6242759;23;20012;-85
2023/08/25 15:00:03;;;;;;;16.33;11.82;;;;;;;;;;6241310;23;20014;-85
2023/08/25 15:02:29;;;;;;;15.57;11.77;;;;;;;;;;6215040;23;20058;-84
2023/08/25 15:04:55;;;;;;;16.88;11.32;;;;;;;;;;6189255;23;20026;-84
2023/08/25 15:07:22;;;;;;;15.45;10.65;;;;;;;;;;6215012;23;20019;-84
2023/08/25 15:09:48;;;;;;;14.80;10.75;;;;;;;;;;6241704;23;20035;-83
2023/08/25 15:12:14;;;;;;;17.05;11.10;;;;;;;;;;6214581;23;20020;-85
2023/08/25 15:14:40;;;;;;;15.05;10.65;;;;;;;;;;6214908;23;20020;-86
2023/08/25 15:17:06;;;;;;;17.27;10.98;;;;;;;;;;6212786;23;20461;-85
2023/08/25 15:19:32;;;;;;;14.57;9.65;;;;;;;;;;6214610;23;20040;-84
2023/08/25 15:21:58;;;;;;;17.00;10.88;;;;;;;;;;6240979;23;20009;-84
2023/08/25 15:24:24;;;;;;;14.32;10.65;;;;;;;;;;6212059;23;20250;-84
2023/08/25 15:26:50;;;;;;;15.30;10.45;;;;;;;;;;6241355;23;20012;-84
2023/08/25 15:29:16;;;;;;;13.48;9.70;;;;;;;;;;6240851;23;20061;-84
2023/08/25 15:31:42;;;;;;;14.65;10.43;;;;;;;;;;6241368;23;20020;-84
2023/08/25 15:34:10;;;;;;;15.13;10.52;;;;;;;;;;6239492;23;20015;-83
2023/08/25 15:36:36;;;;;;;14.68;10.38;;;;;;;;;;6214288;23;20016;-83
2023/08/25 15:39:03;;;;;;;15.52;11.38;;;;;;;;;;6239890;23;20021;-84
2023/08/25 15:41:29;;;;;;;16.63;11.15;;;;;;;;;;6240905;23;20018;-82
2023/08/25 15:43:58;;;;;;;17.30;11.38;;;;;;;;;;6240623;23;20433;-81
2023/08/25 15:46:24;;;;;;;15.82;11.55;;;;;;;;;;6213121;23;20020;-82
2023/08/25 15:48:50;;;;;;;17.98;11.65;;;;;;;;;;6240758;23;20469;-81
2023/08/25 15:51:16;;;;;;;15.88;10.73;;;;;;;;;;6213275;23;20263;-84
2023/08/25 15:53:42;;;;;;;18.38;11.68;;;;;;;;;;6241059;23;20023;-83
2023/08/25 15:56:10;;;;;;;16.08;11.68;;;;;;;;;;6239718;23;20438;-82
2023/08/25 15:58:36;;;;;;;18.17;11.15;;;;;;;;;;6241289;23;20020;-84
2023/08/25 16:01:02;;;;;;;15.32;10.63;;;;;;;;;;6240380;23;20012;-83
2023/08/25 16:03:29;;;;;;;16.05;10.90;;;;;;;;;;6241341;23;20058;-83
2023/08/25 16:05:59;;;;;;;16.67;10.48;;;;;;;;;;6239046;23;20079;-84
2023/08/25 16:08:26;;;;;;;;;;;;;;;;;;6240019;23;20016;-84
2023/08/25 16:11:06;;;;;;;14.27;9.05;;;;;;;;;;6240429;23;19911;-87
2023/08/25 16:13:34;;;;;;;11.95;9.25;;;;;;;;;;6214418;23;20083;-90
2023/08/25 16:16:00;;;;;;;14.70;10.27;;;;;;;;;;6213523;23;20012;-92
2023/08/25 16:18:26;;;;;;;16.65;11.55;;;;;;;;;;6214522;23;20012;-92
2023/08/25 16:20:52;;;;;;;17.42;11.43;;;;;;;;;;6240131;23;20019;-88
2023/08/25 16:23:19;;;;;;;15.27;11.18;;;;;;;;;;6240902;23;20137;-90
2023/08/25 16:25:45;;;;;;;14.77;10.73;;;;;;;;;;6214400;23;20023;-90
2023/08/25 16:28:12;;;;;;;16.33;10.73;;;;;;;;;;6214106;23;20422;-92
2023/08/25 16:30:38;;;;;;;15.30;10.27;;;;;;;;;;6241438;23;20016;-90
2023/08/25 16:33:04;;;;;;;11.57;8.80;;;;;;;;;;6239885;23;20012;-91
2023/08/25 16:35:30;;;;;;;12.48;8.25;;;;;;;;;;6216978;23;20027;-95
2023/08/25 16:37:56;;;;;;;11.45;8.18;;;;;;;;;;6247604;23;20020;-91
2023/08/25 16:40:27;;;;;;;12.32;7.60;;;;;;;;;;6241907;23;20023;-92
2023/08/25 16:42:59;;;;;;;11.82;8.02;;;;;;;;;;6244226;23;20024;-92
2023/08/25 16:45:28;;;;;;;12.15;7.82;;;;;;;;;;6243899;23;20020;-92
2023/08/25 16:47:55;;;;;;;13.70;8.10;;;;;;;;;;6243125;23;20078;-90
2023/08/25 16:50:21;;;;;;;14.93;8.25;;;;;;;;;;6247854;23;20016;-90
2023/08/25 16:52:47;;;;;;;13.38;8.48;;;;;;;;;;6245909;23;20326;-92
2023/08/25 16:55:13;;;;;;;13.52;8.55;;;;;;;;;;6217128;23;20023;-92
2023/08/25 16:57:39;;;;;;;13.85;8.38;;;;;;;;;;6218123;23;20434;-90
2023/08/25 17:00:05;;;;;;;12.18;8.38;;;;;;;;;;6242734;23;20465;-91
2023/08/25 17:02:31;;;;;;;14.38;9.48;;;;;;;;;;6240784;23;20035;-94
2023/08/25 17:04:58;;;;;;;14.10;9.55;;;;;;;;;;6246204;23;20090;-93
2023/08/25 17:07:30;;;;;;;10.82;7.65;;;;;;;;;;6246653;23;20267;-95
2023/08/25 17:09:57;;;;;;;11.05;6.88;;;;;;;;;;6245782;23;20346;-93
2023/08/25 17:12:23;;;;;;;9.68;6.60;;;;;;;;;;6249876;23;20023;-94
2023/08/25 17:14:49;;;;;;;9.00;6.13;;;;;;;;;;6217536;23;20012;-90
2023/08/25 17:17:15;;;;;;;8.45;6.20;;;;;;;;;;6190205;23;20043;-90
2023/08/25 17:19:41;;;;;;;9.02;5.72;;;;;;;;;;6214580;23;20392;-91
2023/08/25 17:22:07;;;;;;;8.95;6.05;;;;;;;;;;6216238;23;20019;-93
2023/08/25 17:24:33;;;;;;;8.20;5.63;;;;;;;;;;6192557;23;20012;-92
2023/08/25 17:26:59;;;;;;;8.35;6.05;;;;;;;;;;6244903;23;20043;-91
2023/08/25 17:29:25;;;;;;;11.20;6.53;;;;;;;;;;6250356;23;20457;-92
2023/08/25 17:31:51;;;;;;;9.20;6.70;;;;;;;;;;6216511;23;20035;-94
2023/08/25 17:34:17;;;;;;;12.55;7.15;;;;;;;;;;6242973;23;20024;-94
2023/08/25 17:36:43;;;;;;;9.75;7.18;;;;;;;;;;6192395;23;20015;-94
2023/08/25 17:39:09;;;;;;;12.25;8.10;;;;;;;;;;6217276;23;20016;-94
2023/08/25 17:41:35;;;;;;;11.30;8.23;;;;;;;;;;6218172;23;20014;-93
2023/08/25 17:44:01;;;;;;;13.65;8.80;;;;;;;;;;6216111;23;20405;-95
2023/08/25 17:46:27;;;;;;;12.05;8.77;;;;;;;;;;6217367;23;20090;-92
2023/08/25 17:48:53;;;;;;;12.18;8.55;;;;;;;;;;6216611;23;20042;-92
2023/08/25 17:51:19;;;;;;;12.30;9.00;;;;;;;;;;6247811;23;20357;-91
2023/08/25 17:53:45;;;;;;;12.07;8.32;;;;;;;;;;6247458;23;20016;-88
2023/08/25 17:56:11;;;;;;;11.00;8.18;;;;;;;;;;6191614;23;20023;-94
2023/08/25 17:58:37;;;;;;;12.57;8.77;;;;;;;;;;6192533;23;20012;-89
2023/08/25 18:01:04;;;;;;;11.68;8.52;;;;;;;;;;6218750;23;19996;-95
2023/08/25 18:03:30;;;;;;;12.55;8.60;;;;;;;;;;6244341;23;20031;-92
2023/08/25 18:05:56;;;;;;;12.38;8.00;;;;;;;;;;6216730;23;20417;-93
2023/08/25 18:08:22;;;;;;;13.23;8.77;;;;;;;;;;6243051;23;20016;-91
2023/08/25 18:10:48;;;;;;;14.10;8.65;;;;;;;;;;6217145;23;20016;-93
2023/08/25 18:13:14;;;;;;;12.10;7.93;;;;;;;;;;6217253;23;20077;-92
2023/08/25 18:15:40;;;;;;;14.88;8.88;;;;;;;;;;6217335;23;20121;-93
2023/08/25 18:18:07;;;;;;;11.55;8.18;;;;;;;;;;6215476;23;20019;-92
2023/08/25 18:20:33;;;;;;;12.13;8.93;;;;;;;;;;6216184;23;20433;-93
2023/08/25 18:22:59;;;;;;;14.63;8.77;;;;;;;;;;6191305;23;20019;-93
2023/08/25 18:25:25;;;;;;;15.77;9.23;;;;;;;;;;6243686;23;20016;-93
2023/08/25 18:27:51;;;;;;;19.38;11.10;;;;;;;;;;6217506;23;20035;-94
2023/08/25 18:30:19;;;;;;;18.50;11.23;;;;;;;;;;6216568;23;20054;-93
2023/08/25 18:32:46;;;;;;;17.90;11.48;;;;;;;;;;6216743;23;20138;-92
2023/08/25 18:35:12;;;;;;;18.73;11.02;;;;;;;;;;6216347;23;20043;-95
2023/08/25 18:37:40;;;;;;;18.98;11.70;;;;;;;;;;6217863;23;20016;-93
2023/08/25 18:40:07;;;;;;;18.27;11.07;;;;;;;;;;6216227;23;20012;-92
2023/08/25 18:42:33;;;;;;;16.92;10.45;;;;;;;;;;6216505;23;20083;-90
2023/08/25 18:44:59;;;;;;;17.08;11.27;;;;;;;;;;6215110;23;20023;-93
2023/08/25 18:47:25;;;;;;;20.85;12.10;;;;;;;;;;6241432;23;20019;-92
2023/08/25 18:49:51;;;;;;;18.55;11.55;;;;;;;;;;6242741;23;20384;-91
2023/08/25 18:52:17;;;;;;;20.83;12.55;;;;;;;;;;6189742;23;20016;-91
2023/08/25 18:54:43;;;;;;;19.33;12.15;;;;;;;;;;6213933;23;20048;-91
2023/08/25 18:57:09;;;;;;;16.33;11.55;;;;;;;;;;6214036;23;20027;-84
2023/08/25 18:59:35;;;;;;;19.60;12.70;;;;;;;;;;6242528;23;20005;-84
2023/08/25 19:02:01;;;;;;;19.45;12.00;;;;;;;;;;6241036;23;20043;-83
2023/08/25 19:04:27;;;;;;;23.48;13.63;;;;;;;;;;6241519;23;20012;-84
2023/08/25 19:06:53;;;;;;;17.58;11.73;;;;;;;;;;6214643;23;20069;-84
2023/08/25 19:09:19;;;;;;;18.55;13.30;;;;;;;;;;6241564;23;20030;-83
2023/08/25 19:11:45;;;;;;;19.75;12.50;;;;;;;;;;6241585;23;20008;-84
2023/08/25 19:14:11;;;;;;;18.67;11.52;;;;;;;;;;6214086;23;20016;-84
2023/08/25 19:16:37;;;;;;;19.92;11.35;;;;;;;;;;6214753;23;20096;-85
2023/08/25 19:19:04;;;;;;;17.73;10.77;;;;;;;;;;6189376;23;20024;-83
2023/08/25 19:21:30;;;;;;;19.05;12.18;;;;;;;;;;6240888;23;20054;-83
2023/08/25 19:23:56;;;;;;;18.10;11.60;;;;;;;;;;6241616;23;20012;-84
2023/08/25 19:26:22;;;;;;;17.67;10.68;;;;;;;;;;6241236;23;20134;-84
2023/08/25 19:28:48;;;;;;;17.10;11.02;;;;;;;;;;6214642;23;20020;-84
2023/08/25 19:31:16;;;;;;;19.83;11.88;;;;;;;;;;6213612;23;20435;-85
2023/08/25 19:33:42;;;;;;;18.17;10.45;;;;;;;;;;6214925;23;20016;-84
2023/08/25 19:36:11;;;;;;;20.23;12.57;;;;;;;;;;6240239;23;20022;-84
2023/08/25 19:38:37;;;;;;;20.63;12.20;;;;;;;;;;6214744;23;20016;-84
2023/08/25 19:41:07;;;;;;;16.90;11.18;;;;;;;;;;6211609;23;20012;-84
2023/08/25 19:43:34;;;;;;;17.77;10.77;;;;;;;;;;6241307;23;20473;-83
2023/08/25 19:46:00;;;;;;;17.92;11.95;;;;;;;;;;6239701;23;20035;-83
2023/08/25 19:48:30;;;;;;;18.20;11.13;;;;;;;;;;6241550;23;20012;-84
2023/08/25 19:50:56;;;;;;;16.85;10.27;;;;;;;;;;6213147;23;20056;-83
2023/08/25 19:53:22;;;;;;;21.42;11.93;;;;;;;;;;6241084;23;20390;-84
2023/08/25 19:55:49;;;;;;;19.63;12.70;;;;;;;;;;6212888;23;20083;-84
2023/08/25 19:58:15;;;;;;;19.85;11.40;;;;;;;;;;6213023;23;20024;-84
2023/08/25 20:00:41;;;;;;;16.92;11.45;;;;;;;;;;6213074;23;20074;-84
2023/08/25 20:03:07;;;;;;;20.45;11.43;;;;;;;;;;6213303;23;20027;-84
2023/08/25 20:05:38;;;;;;;22.20;11.77;;;;;;;;;;6214026;23;20020;-84
2023/08/25 20:08:04;;;;;;;19.65;11.88;;;;;;;;;;6240926;23;20016;-84
2023/08/25 20:10:30;;;;;;;18.63;10.85;;;;;;;;;;6240965;23;20360;-84
2023/08/25 20:12:56;;;;;;;18.75;11.30;;;;;;;;;;6240276;23;20341;-84
2023/08/25 20:15:22;;;;;;;18.83;11.68;;;;;;;;;;6213948;23;20016;-83
2023/08/25 20:17:48;;;;;;;22.63;13.00;;;;;;;;;;6241342;23;20055;-84
2023/08/25 20:20:14;;;;;;;19.27;11.65;;;;;;;;;;6213481;23;20492;-84
2023/08/25 20:22:40;;;;;;;22.83;11.75;;;;;;;;;;6213606;23;20091;-84
2023/08/25 20:25:08;;;;;;;24.48;12.73;;;;;;;;;;6213289;23;20469;-84
2023/08/25 20:27:34;;;;;;;22.60;13.18;;;;;;;;;;6213838;23;20348;-84
2023/08/25 20:30:00;;;;;;;23.50;13.77;;;;;;;;;;6240790;23;20018;-84
2023/08/25 20:32:26;;;;;;;26.80;13.32;;;;;;;;;;6214069;23;20020;-84
2023/08/25 20:34:53;;;;;;;19.23;12.95;;;;;;;;;;6240799;23;20019;-84
2023/08/25 20:37:21;;;;;;;22.85;13.30;;;;;;;;;;6239161;23;20020;-84
2023/08/25 20:39:47;;;;;;;19.40;12.20;;;;;;;;;;6214134;23;20093;-83
2023/08/25 20:42:13;;;;;;;20.63;12.82;;;;;;;;;;6238841;23;20095;-84
2023/08/25 20:44:39;;;;;;;21.80;12.57;;;;;;;;;;6214616;23;20012;-84
2023/08/25 20:47:05;;;;;;;20.27;11.63;;;;;;;;;;6240722;23;20447;-83
2023/08/25 20:49:31;;;;;;;19.77;12.00;;;;;;;;;;6242067;23;20043;-85
2023/08/25 20:51:57;;;;;;;19.58;12.02;;;;;;;;;;6214185;23;20057;-84
2023/08/25 20:54:23;;;;;;;19.48;11.93;;;;;;;;;;6242822;23;20012;-85
2023/08/25 20:56:49;;;;;;;19.40;12.07;;;;;;;;;;6241761;23;20081;-84
2023/08/25 20:59:15;;;;;;;20.17;11.60;;;;;;;;;;6242619;23;20333;-84
2023/08/25 21:01:41;;;;;;;23.25;13.43;;;;;;;;;;6243700;23;20303;-85
2023/08/25 21:04:07;;;;;;;19.55;11.93;;;;;;;;;;6242760;23;20083;-85
2023/08/25 21:06:33;;;;;;;18.20;11.88;;;;;;;;;;6242851;23;20012;-85
2023/08/25 21:09:00;;;;;;;17.30;10.63;;;;;;;;;;6242189;23;20012;-85
2023/08/25 21:11:27;;;;;;;21.65;11.20;;;;;;;;;;6215524;23;20100;-84
2023/08/25 21:13:53;;;;;;;18.55;10.57;;;;;;;;;;6216286;23;20043;-85
2023/08/25 21:16:20;;;;;;;18.92;11.23;;;;;;;;;;6215818;23;20016;-85
2023/08/25 21:18:46;;;;;;;20.20;10.82;;;;;;;;;;6242799;23;20016;-85
2023/08/25 21:21:13;;;;;;;19.13;11.10;;;;;;;;;;6242515;23;20081;-84
2023/08/25 21:23:40;;;;;;;17.65;11.77;;;;;;;;;;6216027;23;20087;-86
2023/08/25 21:26:06;;;;;;;17.85;11.15;;;;;;;;;;6241957;23;20424;-86
2023/08/25 21:28:32;;;;;;;19.10;11.05;;;;;;;;;;6242827;23;20012;-87
2023/08/25 21:30:59;;;;;;;17.90;10.75;;;;;;;;;;6214798;23;20016;-86
2023/08/25 21:33:26;;;;;;;24.17;11.25;;;;;;;;;;6215965;23;20046;-86
2023/08/25 21:35:52;;;;;;;16.50;10.05;;;;;;;;;;6242632;23;20326;-86
2023/08/25 21:38:18;;;;;;;16.90;10.77;;;;;;;;;;6215392;23;20051;-86
2023/08/25 21:40:44;;;;;;;16.17;11.18;;;;;;;;;;6242653;23;20015;-87
2023/08/25 21:43:12;;;;;;;19.05;11.85;;;;;;;;;;6241564;23;20016;-87
2023/08/25 21:45:38;;;;;;;17.92;11.35;;;;;;;;;;6216084;23;20023;-86
2023/08/25 21:48:04;;;;;;;18.40;11.23;;;;;;;;;;6241770;23;20016;-87
2023/08/25 21:50:30;;;;;;;18.58;10.63;;;;;;;;;;6242369;23;20022;-86
2023/08/25 21:52:56;;;;;;;15.77;10.05;;;;;;;;;;6242390;23;20091;-86
2023/08/25 21:55:23;;;;;;;15.82;10.10;;;;;;;;;;6214622;23;20016;-86
2023/08/25 21:57:49;;;;;;;18.10;11.23;;;;;;;;;;6241910;23;20332;-86
2023/08/25 22:00:15;;;;;;;18.27;10.35;;;;;;;;;;6241916;23;20035;-86
2023/08/25 22:02:42;;;;;;;15.88;9.50;;;;;;;;;;6215783;23;20087;-86
2023/08/25 22:05:08;;;;;;;16.40;10.07;;;;;;;;;;6241719;23;20023;-86
2023/08/25 22:07:34;;;;;;;14.95;9.80;;;;;;;;;;6242850;23;20023;-86
2023/08/25 22:10:00;;;;;;;15.30;10.32;;;;;;;;;;6241534;23;20062;-86
2023/08/25 22:12:27;;;;;;;14.90;10.77;;;;;;;;;;6214986;23;20399;-86
2023/08/25 22:14:53;;;;;;;17.63;10.10;;;;;;;;;;6241629;23;20380;-85
2023/08/25 22:17:19;;;;;;;14.82;10.43;;;;;;;;;;6241842;23;20015;-86
2023/08/25 22:19:45;;;;;;;15.02;9.20;;;;;;;;;;6243154;23;20015;-86
2023/08/25 22:22:11;;;;;;;15.85;9.95;;;;;;;;;;6241523;23;20016;-86
2023/08/25 22:24:38;;;;;;;14.38;9.52;;;;;;;;;;6241748;23;20059;-85
2023/08/25 22:27:04;;;;;;;15.00;9.68;;;;;;;;;;6241793;23;20012;-86
2023/08/25 22:29:30;;;;;;;15.70;9.25;;;;;;;;;;6214654;23;20446;-87
2023/08/25 22:31:56;;;;;;;14.48;9.60;;;;;;;;;;6214522;23;20020;-83
2023/08/25 22:34:23;;;;;;;14.60;9.18;;;;;;;;;;6215033;23;20511;-82
2023/08/25 22:36:49;;;;;;;17.42;9.82;;;;;;;;;;6242520;23;20012;-82
2023/08/25 22:39:15;;;;;;;12.82;10.20;;;;;;;;;;6240807;23;20465;-84
2023/08/25 22:41:41;;;;;;;16.05;8.85;;;;;;;;;;6215270;23;20019;-83
2023/08/25 22:44:07;;;;;;;15.98;9.32;;;;;;;;;;6241913;23;20012;-83
2023/08/25 22:46:34;;;;;;;12.80;9.10;;;;;;;;;;6242327;23;20025;-83
2023/08/25 22:49:00;;;;;;;15.18;9.57;;;;;;;;;;6241631;23;20087;-82
2023/08/25 22:51:26;;;;;;;14.93;9.07;;;;;;;;;;6214476;23;20020;-83
2023/08/25 22:53:53;;;;;;;15.23;8.75;;;;;;;;;;6240975;23;20020;-82
2023/08/25 22:56:19;;;;;;;13.38;8.02;;;;;;;;;;6241611;23;20016;-83
2023/08/25 22:58:46;;;;;;;12.13;8.27;;;;;;;;;;6241334;23;20051;-83
2023/08/25 23:01:16;;;;;;;14.40;8.18;;;;;;;;;;6241090;23;20023;-82
2023/08/25 23:03:42;;;;;;;13.32;7.93;;;;;;;;;;6215159;23;20008;-82
2023/08/25 23:06:08;;;;;;;15.35;7.78;;;;;;;;;;6240999;23;20012;-81
2023/08/25 23:08:34;;;;;;;10.88;8.02;;;;;;;;;;6241163;23;20016;-80
2023/08/25 23:11:00;;;;;;;12.90;8.02;;;;;;;;;;6241489;23;20018;-80
2023/08/25 23:13:26;;;;;;;11.15;7.00;;;;;;;;;;6214028;23;20020;-77
2023/08/25 23:15:52;;;;;;;15.55;8.93;;;;;;;;;;6241237;23;20016;-82
2023/08/25 23:18:18;;;;;;;10.55;7.20;;;;;;;;;;6240956;23;20333;-87
2023/08/25 23:20:44;;;;;;;11.55;7.65;;;;;;;;;;6241825;23;20456;-87
2023/08/25 23:23:10;;;;;;;12.05;6.90;;;;;;;;;;6213252;23;20072;-87
2023/08/25 23:25:36;;;;;;;12.35;7.82;;;;;;;;;;6241743;23;20322;-87
2023/08/25 23:28:03;;;;;;;10.68;6.43;;;;;;;;;;6240907;23;20047;-88
2023/08/25 23:30:29;;;;;;;11.80;7.28;;;;;;;;;;6241789;23;20016;-87
2023/08/25 23:32:55;;;;;;;10.88;6.95;;;;;;;;;;6214345;23;20079;-88
2023/08/25 23:35:21;;;;;;;12.73;7.55;;;;;;;;;;6241722;23;20012;-88
2023/08/25 23:37:47;;;;;;;9.13;6.55;;;;;;;;;;6241490;23;20058;-88
2023/08/25 23:40:13;;;;;;;9.27;6.45;;;;;;;;;;6240761;23;20146;-87
2023/08/25 23:42:39;;;;;;;9.57;5.90;;;;;;;;;;6241755;23;20012;-88
2023/08/25 23:45:05;;;;;;;10.38;6.05;;;;;;;;;;6214493;23;20020;-88
2023/08/25 23:47:31;;;;;;;10.38;6.45;;;;;;;;;;6241515;23;20016;-88
2023/08/25 23:49:58;;;;;;;10.93;6.43;;;;;;;;;;6241207;23;20066;-88
2023/08/25 23:52:24;;;;;;;10.02;7.70;;;;;;;;;;6240076;23;20023;-87
2023/08/25 23:54:50;;;;;;;9.85;5.60;;;;;;;;;;6241083;23;20024;-88
2023/08/25 23:57:16;;;;;;;10.50;6.60;;;;;;;;;;6214021;23;20454;-87
2023/08/25 23:59:44;;;;;;;11.07;6.35;;;;;;;;;;6241935;23;20322;-87
